createdAt,value
2018-12-02T00:00:20.020Z,2.00
2018-12-02T00:02:48.050Z,3.27
2018-12-02T00:05:16.015Z,2.63
2018-12-02T00:07:44.132Z,4.03
2018-12-02T00:10:12.644Z,2.60
2018-12-02T00:12:40.706Z,1.77
2018-12-02T00:15:13.278Z,2.23
2018-12-02T00:17:41.262Z,3.20
2018-12-02T00:20:09.855Z,2.87
2018-12-02T00:22:38.154Z,2.10
2018-12-02T00:25:06.886Z,3.10
2018-12-02T00:27:34.863Z,3.90
2018-12-02T00:30:03.257Z,3.17
2018-12-02T00:32:31.315Z,4.10
2018-12-02T00:34:59.406Z,3.00
2018-12-02T00:37:27.470Z,2.10
2018-12-02T00:39:55.562Z,4.00
2018-12-02T00:42:23.610Z,2.37
2018-12-02T00:44:51.758Z,2.30
2018-12-02T00:47:19.796Z,2.03
2018-12-02T00:49:47.944Z,3.93
2018-12-02T00:52:16.038Z,2.03
2018-12-02T00:54:44.071Z,2.33
2018-12-02T00:57:12.071Z,1.73
2018-12-02T00:59:40.444Z,2.10
2018-12-02T01:02:10.466Z,2.07
2018-12-02T01:04:39.075Z,2.30
2018-12-02T01:07:07.065Z,1.67
2018-12-02T01:09:35.044Z,4.27
2018-12-02T01:12:03.006Z,2.07
2018-12-02T01:14:31.060Z,2.10
2018-12-02T01:16:59.045Z,2.40
2018-12-02T01:19:27.046Z,2.63
2018-12-02T01:21:55.082Z,4.03
2018-12-02T01:24:23.094Z,1.90
2018-12-02T01:26:51.105Z,2.27
2018-12-02T01:29:19.099Z,2.00
2018-12-02T01:31:47.063Z,2.00
2018-12-02T01:34:15.027Z,1.97
2018-12-02T01:36:43.118Z,1.97
2018-12-02T01:39:11.095Z,4.70
2018-12-02T01:41:39.111Z,1.60
2018-12-02T01:44:07.126Z,1.60
2018-12-02T01:46:35.096Z,1.97
2018-12-02T01:49:03.086Z,3.30
2018-12-02T01:51:31.080Z,1.57
2018-12-02T01:53:59.024Z,1.70
2018-12-02T01:56:27.006Z,1.90
2018-12-02T01:58:55.296Z,2.67
2018-12-02T02:01:23.316Z,1.70
2018-12-02T02:03:51.283Z,1.63
2018-12-02T02:06:19.283Z,1.77
2018-12-02T02:08:47.307Z,2.57
2018-12-02T02:11:15.276Z,2.40
2018-12-02T02:13:43.264Z,1.50
2018-12-02T02:16:11.276Z,5.73
2018-12-02T02:18:39.251Z,1.50
2018-12-02T02:21:07.279Z,4.00
2018-12-02T02:23:35.258Z,1.50
2018-12-02T02:26:03.238Z,2.07
2018-12-02T02:28:31.227Z,1.50
2018-12-02T02:30:59.288Z,1.67
2018-12-02T02:33:27.263Z,1.90
2018-12-02T02:35:55.332Z,1.47
2018-12-02T02:38:23.295Z,2.13
2018-12-02T02:40:51.332Z,2.37
2018-12-02T02:43:19.371Z,1.83
2018-12-02T02:45:47.479Z,1.30
2018-12-02T02:48:15.485Z,1.30
2018-12-02T02:50:43.717Z,1.77
2018-12-02T02:53:11.708Z,1.10
2018-12-02T02:55:39.687Z,1.23
2018-12-02T02:58:07.980Z,1.10
2018-12-02T03:00:35.950Z,0.90
2018-12-02T03:03:03.909Z,0.90
2018-12-02T03:05:32.403Z,1.03
2018-12-02T03:08:00.365Z,1.07
2018-12-02T03:10:28.320Z,1.20
2018-12-02T03:12:57.301Z,1.17
2018-12-02T03:15:25.265Z,1.00
2018-12-02T03:17:53.269Z,0.93
2018-12-02T03:20:21.691Z,1.10
2018-12-02T03:22:50.975Z,0.83
2018-12-02T03:25:19.343Z,1.27
2018-12-02T03:27:47.434Z,1.50
2018-12-02T03:30:18.682Z,1.20
2018-12-02T03:32:46.703Z,0.80
2018-12-02T03:35:16.182Z,1.70
2018-12-02T03:37:44.097Z,1.13
2018-12-02T03:40:14.503Z,1.13
2018-12-02T03:42:42.503Z,0.80
2018-12-02T03:45:10.983Z,1.03
2018-12-02T03:47:39.101Z,0.70
2018-12-02T03:50:08.274Z,0.70
2018-12-02T03:52:36.264Z,0.83
2018-12-02T03:55:05.056Z,0.73
2018-12-02T03:57:33.015Z,0.70
2018-12-02T04:00:00.989Z,0.70
2018-12-02T04:02:29.023Z,0.97
2018-12-02T04:04:56.994Z,0.80
2018-12-02T04:07:24.982Z,0.90
2018-12-02T04:09:52.971Z,1.20
2018-12-02T04:12:20.924Z,0.93
2018-12-02T04:14:48.979Z,1.17
2018-12-02T04:17:17.272Z,1.10
2018-12-02T04:19:45.314Z,1.50
2018-12-02T04:22:13.315Z,1.30
2018-12-02T04:24:41.484Z,1.20
2018-12-02T04:27:09.467Z,3.37
2018-12-02T04:29:37.452Z,1.10
2018-12-02T04:32:05.560Z,1.90
2018-12-02T04:34:33.539Z,1.60
2018-12-02T04:37:01.491Z,0.70
2018-12-02T04:39:29.468Z,0.80
2018-12-02T04:41:57.465Z,0.80
2018-12-02T04:44:25.441Z,0.87
2018-12-02T04:46:53.421Z,2.97
2018-12-02T04:49:21.398Z,1.83
2018-12-02T04:51:49.391Z,1.93
2018-12-02T04:54:17.994Z,0.90
2018-12-02T04:56:45.963Z,1.00
2018-12-02T04:59:13.916Z,1.40
2018-12-02T05:01:41.910Z,0.90
2018-12-02T05:04:09.900Z,1.07
2018-12-02T05:06:37.960Z,0.80
2018-12-02T05:09:06.742Z,2.23
2018-12-02T05:11:34.802Z,1.57
2018-12-02T05:14:02.972Z,0.90
2018-12-02T05:16:31.009Z,0.70
2018-12-02T05:18:59.030Z,1.67
2018-12-02T05:21:27.012Z,2.60
2018-12-02T05:24:04.874Z,0.83
2018-12-02T05:26:32.900Z,0.80
2018-12-02T05:29:00.902Z,3.80
2018-12-02T05:31:28.972Z,2.20
2018-12-02T05:33:56.967Z,0.80
2018-12-02T05:36:24.971Z,0.97
2018-12-02T05:38:52.992Z,4.10
2018-12-02T05:41:20.982Z,1.57
2018-12-02T05:43:48.995Z,0.60
2018-12-02T05:46:17.054Z,1.87
2018-12-02T05:48:45.092Z,0.53
2018-12-02T05:51:13.162Z,0.63
2018-12-02T05:53:41.212Z,0.90
2018-12-02T05:56:09.224Z,1.90
2018-12-02T05:58:37.239Z,0.83
2018-12-02T06:01:05.270Z,1.87
2018-12-02T06:03:33.303Z,0.70
2018-12-02T06:06:01.327Z,1.03
2018-12-02T06:08:29.385Z,1.90
2018-12-02T06:10:57.399Z,1.03
2018-12-02T06:13:25.424Z,0.70
2018-12-02T06:15:53.475Z,0.70
2018-12-02T06:18:21.500Z,1.50
2018-12-02T06:20:49.568Z,0.93
2018-12-02T06:23:17.594Z,1.83
2018-12-02T06:25:46.586Z,1.03
2018-12-02T06:28:13.637Z,1.27
2018-12-02T06:30:41.668Z,0.90
2018-12-02T06:33:09.715Z,2.20
2018-12-02T06:35:37.754Z,1.27
2018-12-02T06:38:06.399Z,1.10
2018-12-02T06:40:34.397Z,1.10
2018-12-02T06:45:49.052Z,1.70
2018-12-02T06:48:17.123Z,0.80
2018-12-02T06:50:45.201Z,0.93
2018-12-02T06:53:14.259Z,0.70
2018-12-02T06:55:45.277Z,0.90
2018-12-02T06:58:17.467Z,0.80
2018-12-02T07:00:49.606Z,0.80
2018-12-02T07:03:27.250Z,0.80
2018-12-02T07:05:55.320Z,0.90
2018-12-02T07:08:23.342Z,0.83
2018-12-02T07:10:51.407Z,0.70
2018-12-02T07:13:19.431Z,0.80
2018-12-02T07:15:47.444Z,0.80
2018-12-02T07:18:16.415Z,1.00
2018-12-02T07:20:48.814Z,1.27
2018-12-02T07:23:17.969Z,1.10
2018-12-02T07:25:46.679Z,1.87
2018-12-02T07:28:14.711Z,0.90
2018-12-02T07:30:42.911Z,0.90
2018-12-02T07:33:10.987Z,1.17
2018-12-02T07:35:39.045Z,0.87
2018-12-02T07:38:09.064Z,1.10
2018-12-02T07:40:41.082Z,1.37
2018-12-02T07:43:09.716Z,1.40
2018-12-02T07:45:37.791Z,1.10
2018-12-02T07:48:05.804Z,1.00
2018-12-02T07:50:33.943Z,1.60
2018-12-02T07:53:01.999Z,1.30
2018-12-02T07:55:30.030Z,1.37
2018-12-02T07:57:58.074Z,1.23
2018-12-02T08:00:26.145Z,2.70
2018-12-02T08:02:54.191Z,1.10
2018-12-02T08:05:22.521Z,2.03
2018-12-02T08:07:50.767Z,0.97
2018-12-02T08:10:19.034Z,1.60
2018-12-02T08:12:47.203Z,0.90
2018-12-02T08:15:15.831Z,0.93
2018-12-02T08:17:43.898Z,2.17
2018-12-02T08:20:12.383Z,2.00
2018-12-02T08:22:41.699Z,1.00
2018-12-02T08:25:12.821Z,1.57
2018-12-02T08:27:40.938Z,3.90
2018-12-02T08:30:10.049Z,1.37
2018-12-02T08:32:38.258Z,1.30
2018-12-02T08:35:06.826Z,2.07
2018-12-02T08:37:35.011Z,4.30
2018-12-02T08:40:03.215Z,3.07
2018-12-02T08:42:31.275Z,2.73
2018-12-02T08:45:01.099Z,0.97
2018-12-02T08:47:29.146Z,2.77
2018-12-02T08:49:57.218Z,3.17
2018-12-02T08:52:25.264Z,1.70
2018-12-02T08:54:53.371Z,2.13
2018-12-02T08:57:21.497Z,1.60
2018-12-02T08:59:49.549Z,3.37
2018-12-02T09:02:17.620Z,7.20
2018-12-02T09:04:46.749Z,5.87
2018-12-02T09:07:14.873Z,1.40
2018-12-02T09:09:42.915Z,3.30
2018-12-02T09:12:10.963Z,2.73
2018-12-02T09:14:39.043Z,1.97
2018-12-02T09:17:07.111Z,2.83
2018-12-02T09:19:36.186Z,3.70
2018-12-02T09:22:04.231Z,6.93
2018-12-02T09:24:32.339Z,5.07
2018-12-02T09:27:00.438Z,3.33
2018-12-02T09:29:28.488Z,2.50
2018-12-02T09:31:56.639Z,4.83
2018-12-02T09:34:24.732Z,6.33
2018-12-02T09:36:57.855Z,4.53
2018-12-02T09:39:20.844Z,3.23
2018-12-02T09:41:48.882Z,4.17
2018-12-02T09:44:16.956Z,3.50
2018-12-02T09:46:45.019Z,3.93
2018-12-02T09:49:13.068Z,3.80
2018-12-02T09:51:41.155Z,3.90
2018-12-02T09:54:09.286Z,5.63
2018-12-02T09:56:37.404Z,4.90
2018-12-02T09:59:05.471Z,3.97
2018-12-02T10:01:33.524Z,3.33
2018-12-02T10:04:01.615Z,3.93
2018-12-02T10:06:29.672Z,5.00
2018-12-02T10:08:57.731Z,7.53
2018-12-02T10:11:25.786Z,4.80
2018-12-02T10:13:54.823Z,6.23
2018-12-02T10:16:22.892Z,3.93
2018-12-02T10:18:50.898Z,4.80
2018-12-02T10:21:18.959Z,6.10
2018-12-02T10:23:47.056Z,5.10
2018-12-02T10:26:15.388Z,6.43
2018-12-02T10:28:44.626Z,5.77
2018-12-02T10:31:12.686Z,5.37
2018-12-02T10:33:40.768Z,5.53
2018-12-02T10:36:08.955Z,4.60
2018-12-02T10:38:37.256Z,4.17
2018-12-02T10:41:05.475Z,5.67
2018-12-02T10:43:33.563Z,4.97
2018-12-02T10:46:01.714Z,3.47
2018-12-02T10:48:29.810Z,3.60
2018-12-02T10:50:58.927Z,3.60
2018-12-02T10:53:27.071Z,3.40
2018-12-02T10:55:55.703Z,3.83
2018-12-02T10:58:24.307Z,4.13
2018-12-02T11:00:58.496Z,5.60
2018-12-02T11:03:26.580Z,8.37
2018-12-02T11:05:54.624Z,5.90
2018-12-02T11:08:22.712Z,4.37
2018-12-02T11:10:50.990Z,5.00
2018-12-02T11:13:19.056Z,5.23
2018-12-02T11:15:47.131Z,7.80
2018-12-02T11:18:15.264Z,7.13
2018-12-02T11:20:44.495Z,5.20
2018-12-02T11:23:12.624Z,6.90
2018-12-02T11:25:40.745Z,8.00
2018-12-02T11:28:09.087Z,8.13
2018-12-02T11:30:37.376Z,12.10
2018-12-02T11:33:05.651Z,10.37
2018-12-02T11:35:34.955Z,10.60
2018-12-02T11:38:03.064Z,9.47
2018-12-02T11:40:32.184Z,9.60
2018-12-02T11:43:00.357Z,9.87
2018-12-02T11:45:28.480Z,12.33
2018-12-02T11:47:56.589Z,15.93
2018-12-02T11:50:25.135Z,10.23
2018-12-02T11:52:53.233Z,10.63
2018-12-02T11:55:21.668Z,11.70
2018-12-02T11:57:49.796Z,10.53
2018-12-02T12:00:19.295Z,9.87
2018-12-02T12:02:47.384Z,12.30
2018-12-02T12:05:15.469Z,12.00
2018-12-02T12:07:43.889Z,13.37
2018-12-02T12:10:13.408Z,14.80
2018-12-02T12:12:42.573Z,13.10
2018-12-02T12:15:12.261Z,13.30
2018-12-02T12:17:40.328Z,13.87
2018-12-02T12:20:15.096Z,15.13
2018-12-02T12:22:43.246Z,15.47
2018-12-02T12:25:11.380Z,13.53
2018-12-02T12:27:40.460Z,14.37
2018-12-02T12:30:11.041Z,18.17
2018-12-02T12:32:39.127Z,15.13
2018-12-02T12:35:08.038Z,14.97
2018-12-02T12:37:36.173Z,15.03
2018-12-02T12:40:06.012Z,18.93
2018-12-02T12:42:34.081Z,15.97
2018-12-02T12:45:02.154Z,17.03
2018-12-02T12:47:30.227Z,18.10
2018-12-02T12:49:58.441Z,18.30
2018-12-02T12:52:26.484Z,20.87
2018-12-02T12:54:54.548Z,24.47
2018-12-02T12:57:22.611Z,21.50
2018-12-02T12:59:50.656Z,21.80
2018-12-02T13:02:18.770Z,25.93
2018-12-02T13:04:46.915Z,23.97
2018-12-02T13:07:17.846Z,26.00
2018-12-02T13:09:45.920Z,25.77
2018-12-02T13:12:13.974Z,31.70
2018-12-02T13:14:42.095Z,29.37
2018-12-02T13:17:10.223Z,25.97
2018-12-02T13:19:38.335Z,25.43
2018-12-02T13:22:06.413Z,26.47
2018-12-02T13:24:34.494Z,25.83
2018-12-02T13:27:02.667Z,24.27
2018-12-02T13:29:30.795Z,28.17
2018-12-02T13:31:58.880Z,28.53
2018-12-02T13:34:27.078Z,25.13
2018-12-02T13:36:55.389Z,24.37
2018-12-02T13:39:24.473Z,24.63
2018-12-02T13:41:52.556Z,24.47
2018-12-02T13:44:20.640Z,29.17
2018-12-02T13:46:48.749Z,28.50
2018-12-02T13:49:16.860Z,28.10
2018-12-02T13:51:44.947Z,26.07
2018-12-02T13:54:18.300Z,26.10
2018-12-02T13:56:46.382Z,27.17
2018-12-02T13:59:14.496Z,25.10
2018-12-02T14:01:42.583Z,30.70
2018-12-02T14:04:10.710Z,25.17
2018-12-02T14:06:38.800Z,23.20
2018-12-02T14:09:07.009Z,21.00
2018-12-02T14:11:35.111Z,21.10
2018-12-02T14:14:03.700Z,20.23
2018-12-02T14:16:36.055Z,19.63
2018-12-02T14:19:05.704Z,19.27
2018-12-02T14:21:33.810Z,20.87
2018-12-02T14:24:01.892Z,17.10
2018-12-02T14:26:30.987Z,17.37
2018-12-02T14:29:09.938Z,17.07
2018-12-02T14:31:38.762Z,19.20
2018-12-02T14:34:06.855Z,17.43
2018-12-02T14:36:34.960Z,17.20
2018-12-02T14:39:03.333Z,17.43
2018-12-02T14:41:31.518Z,19.57
2018-12-02T14:43:59.648Z,20.30
2018-12-02T14:46:27.769Z,20.87
2018-12-02T14:48:55.990Z,17.07
2018-12-02T14:51:24.360Z,14.63
2018-12-02T14:53:52.564Z,15.63
2018-12-02T14:56:20.616Z,15.70
2018-12-02T14:58:48.753Z,16.07
2018-12-02T15:01:16.928Z,13.90
2018-12-02T15:03:45.022Z,16.20
2018-12-02T15:06:13.112Z,15.50
2018-12-02T15:11:27.424Z,18.43
2018-12-02T15:13:55.489Z,18.60
2018-12-02T15:16:24.476Z,21.17
2018-12-02T15:18:52.551Z,21.70
2018-12-02T15:23:57.415Z,28.10
2018-12-02T15:26:25.471Z,27.63
2018-12-02T15:28:53.555Z,28.63
2018-12-02T15:31:21.679Z,29.73
2018-12-02T15:33:49.719Z,31.33
2018-12-02T15:36:17.829Z,37.77
2018-12-02T15:38:45.927Z,30.33
2018-12-02T15:41:14.047Z,24.23
2018-12-02T15:43:42.128Z,25.40
2018-12-02T15:46:10.347Z,28.07
2018-12-02T15:48:38.450Z,24.47
2018-12-02T15:51:06.491Z,25.70
2018-12-02T15:53:34.750Z,25.23
2018-12-02T15:56:02.814Z,22.87
2018-12-02T15:58:30.906Z,29.23
2018-12-02T16:00:59.335Z,24.43
2018-12-02T16:03:27.428Z,27.33
2018-12-02T16:05:55.587Z,25.47
2018-12-02T16:08:23.661Z,26.47
2018-12-02T16:10:51.821Z,24.50
2018-12-02T16:13:19.860Z,25.20
2018-12-02T16:15:47.928Z,25.67
2018-12-02T16:18:15.998Z,29.33
2018-12-02T16:20:45.788Z,25.37
2018-12-02T16:23:14.483Z,27.80
2018-12-02T16:25:42.536Z,24.40
2018-12-02T16:28:10.683Z,26.17
2018-12-02T16:30:38.761Z,30.23
2018-12-02T16:33:07.122Z,29.80
2018-12-02T16:35:35.173Z,27.33
2018-12-02T16:38:03.246Z,28.17
2018-12-02T16:40:31.864Z,30.30
2018-12-02T16:42:59.930Z,29.90
2018-12-02T16:45:28.159Z,30.10
2018-12-02T16:47:57.587Z,29.80
2018-12-02T16:50:28.504Z,30.07
2018-12-02T16:52:58.187Z,29.10
2018-12-02T16:55:27.001Z,28.83
2018-12-02T16:58:01.647Z,34.45
2018-12-02T17:00:33.587Z,33.37
2018-12-02T17:03:01.718Z,28.20
2018-12-02T17:05:29.772Z,29.83
2018-12-02T17:07:57.877Z,29.33
2018-12-02T17:10:25.995Z,26.67
2018-12-02T17:13:07.528Z,26.57
2018-12-02T17:15:35.579Z,24.43
2018-12-02T17:18:03.669Z,22.77
2018-12-02T17:20:31.723Z,23.23
2018-12-02T17:22:59.801Z,23.93
2018-12-02T17:25:27.880Z,26.67
2018-12-02T17:27:55.963Z,25.57
2018-12-02T17:30:30.051Z,27.33
2018-12-02T17:32:58.136Z,23.67
2018-12-02T17:35:26.200Z,24.33
2018-12-02T17:37:54.286Z,23.23
2018-12-02T17:40:22.820Z,24.17
2018-12-02T17:42:50.862Z,18.63
2018-12-02T17:45:18.944Z,18.17
2018-12-02T17:47:47.073Z,14.33
2018-12-02T17:50:16.064Z,17.10
2018-12-02T17:52:44.763Z,16.03
2018-12-02T17:55:12.799Z,17.23
2018-12-02T17:57:40.867Z,19.10
2018-12-02T18:00:09.880Z,16.70
2018-12-02T18:02:37.943Z,15.47
2018-12-02T18:05:07.956Z,17.77
2018-12-02T18:07:36.012Z,17.33
2018-12-02T18:10:04.950Z,18.30
2018-12-02T18:12:32.995Z,16.93
2018-12-02T18:15:01.084Z,18.80
2018-12-02T18:17:29.132Z,19.77
2018-12-02T18:19:57.169Z,24.77
2018-12-02T18:22:25.223Z,26.10
2018-12-02T18:24:53.416Z,27.47
2018-12-02T18:27:21.443Z,25.03
2018-12-02T18:29:49.519Z,27.60
2018-12-02T18:32:17.595Z,28.23
2018-12-02T18:34:45.693Z,27.17
2018-12-02T18:37:13.784Z,29.45
2018-12-02T18:39:41.864Z,22.97
2018-12-02T18:42:09.947Z,23.23
2018-12-02T18:44:38.001Z,22.00
2018-12-02T18:47:06.156Z,21.50
2018-12-02T18:49:34.200Z,22.43
2018-12-02T18:52:02.245Z,23.17
2018-12-02T18:54:30.299Z,22.30
2018-12-02T18:57:00.375Z,22.80
2018-12-02T18:59:28.497Z,23.30
2018-12-02T19:01:56.545Z,21.73
2018-12-02T19:04:24.641Z,22.90
2018-12-02T19:06:58.415Z,20.40
2018-12-02T19:09:20.835Z,17.90
2018-12-02T19:11:48.898Z,21.10
2018-12-02T19:14:17.041Z,18.03
2018-12-02T19:16:45.111Z,18.03
2018-12-02T19:19:13.240Z,14.27
2018-12-02T19:21:41.394Z,14.20
2018-12-02T19:24:13.199Z,12.37
2018-12-02T19:26:41.486Z,13.77
2018-12-02T19:29:10.947Z,13.70
2018-12-02T19:31:39.153Z,15.13
2018-12-02T19:34:07.567Z,12.40
2018-12-02T19:36:51.491Z,15.20
2018-12-02T19:39:19.820Z,14.00
2018-12-02T19:41:47.916Z,16.03
2018-12-02T19:44:15.971Z,14.30
2018-12-02T19:46:44.082Z,15.43
2018-12-02T19:49:12.183Z,13.43
2018-12-02T19:51:40.274Z,11.00
2018-12-02T19:54:08.328Z,11.00
2018-12-02T19:56:36.408Z,14.33
2018-12-02T19:59:04.481Z,11.57
2018-12-02T20:01:32.513Z,10.37
2018-12-02T20:04:00.617Z,9.77
2018-12-02T20:06:28.664Z,10.33
2018-12-02T20:08:57.821Z,12.93
2018-12-02T20:11:27.046Z,10.53
2018-12-02T20:13:55.163Z,9.17
2018-12-02T20:16:23.320Z,8.53
2018-12-02T20:18:51.301Z,7.10
2018-12-02T20:21:20.228Z,12.43
2018-12-02T20:24:01.170Z,9.60
2018-12-02T20:26:29.278Z,12.90
2018-12-02T20:28:57.687Z,6.60
2018-12-02T20:31:27.149Z,7.63
2018-12-02T20:33:55.244Z,6.90
2018-12-02T20:36:23.361Z,8.23
2018-12-02T20:38:51.719Z,7.20
2018-12-02T20:41:20.094Z,9.47
2018-12-02T20:43:49.282Z,7.67
2018-12-02T20:46:17.416Z,8.60
2018-12-02T20:48:45.544Z,9.07
2018-12-02T20:51:13.591Z,6.70
2018-12-02T20:53:41.664Z,7.00
2018-12-02T20:56:09.737Z,10.08
2018-12-02T20:58:37.850Z,8.53
2018-12-02T21:01:05.949Z,7.47
2018-12-02T21:03:35.234Z,12.40
2018-12-02T21:06:08.459Z,7.67
2018-12-02T21:08:36.801Z,12.07
2018-12-02T21:11:04.952Z,8.20
2018-12-02T21:13:33.028Z,7.27
2018-12-02T21:16:01.146Z,9.93
2018-12-02T21:18:29.308Z,8.43
2018-12-02T21:20:57.382Z,11.90
2018-12-02T21:23:25.608Z,9.03
2018-12-02T21:25:53.648Z,10.27
2018-12-02T21:28:24.195Z,10.80
2018-12-02T21:30:52.295Z,9.23
2018-12-02T21:33:20.430Z,10.57
2018-12-02T21:35:48.709Z,7.43
2018-12-02T21:38:16.867Z,7.73
2018-12-02T21:40:44.979Z,7.97
2018-12-02T21:43:13.527Z,9.23
2018-12-02T21:45:41.588Z,8.27
2018-12-02T21:48:10.591Z,5.80
2018-12-02T21:50:38.854Z,9.30
2018-12-02T21:53:06.995Z,9.97
2018-12-02T21:55:35.020Z,9.23
2018-12-02T21:58:03.211Z,9.57
2018-12-02T22:00:36.714Z,14.27
2018-12-02T22:03:04.941Z,10.60
2018-12-02T22:05:33.235Z,8.63
2018-12-02T22:08:13.634Z,7.07
2018-12-02T22:10:41.691Z,8.37
2018-12-02T22:13:09.739Z,9.90
2018-12-02T22:15:37.984Z,11.63
2018-12-02T22:18:06.162Z,11.63
2018-12-02T22:20:34.335Z,9.33
2018-12-02T22:23:02.374Z,10.67
2018-12-02T22:25:30.483Z,12.20
2018-12-02T22:27:59.291Z,14.70
2018-12-02T22:30:29.519Z,12.07
2018-12-02T22:32:57.575Z,11.33
2018-12-02T22:35:25.667Z,15.13
2018-12-02T22:37:53.695Z,14.03
2018-12-02T22:40:23.454Z,16.90
2018-12-02T22:42:51.992Z,15.73
2018-12-02T22:45:20.748Z,13.30
2018-12-02T22:47:48.819Z,13.80
2018-12-02T22:50:17.453Z,14.13
2018-12-02T22:52:46.898Z,15.30
2018-12-02T22:55:15.048Z,15.13
2018-12-02T22:57:43.057Z,13.93
2018-12-02T23:00:16.892Z,12.33
2018-12-02T23:02:51.366Z,13.00
2018-12-02T23:05:19.459Z,15.63
2018-12-02T23:07:47.503Z,13.40
2018-12-02T23:10:15.606Z,15.37
2018-12-02T23:12:43.679Z,19.43
2018-12-02T23:15:11.679Z,19.40
2018-12-02T23:17:39.717Z,15.20
2018-12-02T23:20:08.794Z,16.30
2018-12-02T23:22:36.795Z,16.17
2018-12-02T23:25:05.458Z,14.87
2018-12-02T23:30:21.211Z,20.37
2018-12-02T23:32:49.245Z,17.33
2018-12-02T23:35:17.227Z,17.90
2018-12-02T23:37:45.214Z,19.97
2018-12-02T23:40:13.884Z,17.93
2018-12-02T23:42:41.883Z,19.87
2018-12-02T23:45:10.436Z,18.87
2018-12-02T23:47:38.459Z,20.83
2018-12-02T23:50:07.879Z,19.63
2018-12-02T23:52:35.895Z,19.10
2018-12-02T23:55:11.031Z,15.80
2018-12-02T23:57:39.123Z,14.10
